Time;durP1;ratioP1;P1;durP2;ratioP2;P2;SDS_P1;SDS_P2;PMS_P1;PMS_P2;Temp;Humidity;BMP_temperature;BMP_pressure;BME280_temperature;BME280_humidity;BME280_pressure;Samples;Min_cycle;Max_cycle;Signal;HPM_P1;HPM_P2
2022/11/02 00:01:43;;;;;;;1.85;1.75;;;13.90;59.60;;;12.92;61.67;101512.94;12171005;19;20014;-85
2022/11/02 00:05:44;;;;;;;2.55;2.20;;;13.90;59.60;;;12.94;61.63;101532.91;12170591;19;20588;-86
2022/11/02 00:09:46;;;;;;;3.72;2.13;;;13.80;59.60;;;12.86;61.74;101529.84;12169676;19;20381;-85
2022/11/02 00:13:48;;;;;;;1.60;1.50;;;13.60;59.60;;;12.81;61.67;101543.19;12168606;19;20890;-86
2022/11/02 00:17:56;;;;;;;2.30;2.10;;;13.60;59.60;;;12.60;61.59;101515.44;12164081;19;20351;-82
2022/11/02 00:21:58;;;;;;;2.72;2.47;;;13.60;59.60;;;12.67;61.63;101542.22;12164898;19;20524;-85
2022/11/02 00:26:01;;;;;;;2.30;2.08;;;13.40;59.50;;;12.58;61.66;101533.88;12160906;19;20595;-85
2022/11/02 00:30:03;;;;;;;2.22;2.03;;;13.30;59.50;;;12.40;61.66;101506.00;12161550;19;20034;-85
2022/11/02 00:34:05;;;;;;;1.92;1.83;;;13.50;59.60;;;12.47;61.78;101528.31;12161439;19;21415;-86
2022/11/02 00:38:06;;;;;;;2.38;2.17;;;13.40;59.70;;;12.39;61.61;101520.88;12158666;19;20307;-86
2022/11/02 00:42:08;;;;;;;2.22;2.03;;;13.30;59.60;;;12.34;61.59;101524.59;12166734;19;20018;-86
2022/11/02 00:46:10;;;;;;;1.98;1.88;;;13.30;59.50;;;12.28;61.63;101522.31;12172473;19;20014;-86
2022/11/02 00:50:11;;;;;;;2.55;2.25;;;13.20;59.60;;;12.23;61.55;101534.78;12171329;19;20386;-85
2022/11/02 00:54:14;;;;;;;3.58;1.80;;;13.10;59.60;;;11.97;61.60;101497.63;12173959;19;20996;-86
2022/11/02 00:58:17;;;;;;;2.30;1.88;;;12.90;59.60;;;11.80;61.62;101469.63;12171046;19;20039;-85
2022/11/02 01:02:18;;;;;;;2.05;1.88;;;13.10;59.60;;;12.11;61.76;101533.63;12176163;19;20023;-85
2022/11/02 01:06:20;;;;;;;4.03;2.30;;;13.00;59.70;;;11.94;61.76;101516.13;12175658;19;20435;-85
2022/11/02 01:10:22;;;;;;;2.65;2.05;;;13.00;60.40;;;11.77;61.91;101490.69;12174984;19;20036;-85
2022/11/02 01:14:24;;;;;;;2.38;2.17;;;13.00;60.00;;;12.08;61.86;101547.69;12177027;19;20067;-85
2022/11/02 01:18:25;;;;;;;3.30;2.45;;;13.00;60.00;;;12.07;61.79;101537.28;12176088;19;20029;-85
2022/11/02 01:22:27;;;;;;;3.47;2.08;;;13.00;59.70;;;12.00;61.70;101526.28;12173765;19;20011;-85
2022/11/02 01:26:29;;;;;;;2.03;1.85;;;12.90;59.60;;;11.81;61.67;101505.34;12172206;19;21520;-86
2022/11/02 01:30:30;;;;;;;2.28;1.88;;;12.90;59.50;;;11.82;61.72;101519.28;12171664;19;20015;-86
2022/11/02 01:34:32;;;;;;;2.65;2.33;;;12.70;59.50;;;11.76;61.81;101535.28;12174728;19;20018;-85
2022/11/02 01:38:33;;;;;;;2.50;2.30;;;12.70;59.70;;;11.68;61.94;101527.78;12167443;19;20407;-85
2022/11/02 01:42:35;;;;;;;2.05;1.85;;;12.50;59.70;;;11.64;62.04;101524.47;12173028;19;20022;-85
2022/11/02 01:46:43;;;;;;;2.35;2.15;;;12.60;59.70;;;11.61;61.59;101524.63;12166753;19;20019;-85
2022/11/02 01:50:45;;;;;;;2.60;2.13;;;12.70;59.60;;;11.57;61.59;101525.66;12167750;19;20019;-85
2022/11/02 01:54:57;;;;;;;2.30;1.77;;;12.50;59.50;;;11.51;61.40;101531.19;12170111;19;20026;-85
2022/11/02 01:59:05;;;;;;;3.45;1.95;;;12.50;59.60;;;11.43;61.66;101512.38;12171272;19;20018;-86
2022/11/02 02:03:15;;;;;;;4.28;1.52;;;12.40;59.60;;;11.26;61.75;101486.97;12171330;19;20022;-85
2022/11/02 02:07:23;;;;;;;1.83;1.73;;;12.30;59.60;;;11.31;61.57;101498.09;12164766;19;20041;-86
2022/11/02 02:11:32;;;;;;;3.13;1.92;;;12.30;59.60;;;11.36;61.69;101503.09;12168623;19;20025;-85
2022/11/02 02:15:44;;;;;;;2.20;2.00;;;12.30;59.70;;;11.27;61.66;101501.78;12165732;19;20014;-85
2022/11/02 02:20:24;;;;;;;1.95;1.85;;;12.20;59.80;;;11.23;61.62;101489.75;12169028;19;20030;-85
2022/11/02 02:25:08;;;;;;;2.40;1.85;;;12.20;59.90;;;11.18;61.79;101486.50;12166355;19;20039;-86
2022/11/02 02:29:19;;;;;;;2.72;1.60;;;12.20;59.90;;;11.27;61.83;101507.84;12162647;19;20125;-85
2022/11/02 02:33:30;;;;;;;2.10;1.92;;;12.20;60.00;;;11.21;61.91;101494.22;12168503;19;20302;-86
2022/11/02 02:37:41;;;;;;;1.98;1.75;;;12.20;60.00;;;11.15;61.88;101478.78;12162821;19;20507;-85
2022/11/02 02:41:54;;;;;;;1.85;1.73;;;12.20;60.00;;;11.15;61.95;101497.09;12163897;19;20014;-86
2022/11/02 02:46:04;;;;;;;1.70;1.60;;;12.20;60.00;;;11.13;61.96;101483.25;12158918;19;20018;-85
2022/11/02 02:50:17;;;;;;;1.75;1.65;;;12.10;59.90;;;11.00;61.70;101472.50;12160796;19;20074;-85
2022/11/02 02:54:31;;;;;;;2.95;1.83;;;12.10;59.80;;;11.06;61.78;101490.50;12158631;19;20051;-86
2022/11/02 02:58:58;;;;;;;2.08;1.98;;;12.10;59.80;;;10.91;62.01;101471.16;12161223;19;20014;-85
2022/11/02 03:03:04;;;;;;;2.28;2.00;;;12.00;59.80;;;10.95;62.03;101479.69;12162567;19;20015;-86
2022/11/02 03:07:10;;;;;;;;;;;12.00;59.80;;;10.97;61.86;101498.78;12160689;19;20340;-86
2022/11/02 03:11:15;;;;;;;1.33;1.23;;;12.00;59.90;;;10.92;61.75;101485.91;12159931;19;19922;-85
2022/11/02 03:15:41;;;;;;;1.70;1.60;;;12.00;59.90;;;10.90;61.97;101482.50;12154907;19;20315;-85
2022/11/02 03:19:58;;;;;;;1.50;1.40;;;11.90;59.90;;;10.85;61.82;101479.25;12160440;19;20454;-85
2022/11/02 03:24:08;;;;;;;1.88;1.77;;;11.90;60.00;;;10.85;62.02;101498.41;12163618;19;20129;-86
2022/11/02 03:28:24;;;;;;;1.30;1.20;;;11.90;59.90;;;10.77;61.99;101479.56;12156870;19;20014;-86
2022/11/02 03:32:56;;;;;;;2.22;2.03;;;11.90;59.90;;;10.79;61.83;101490.81;12163204;19;20014;-85
2022/11/02 03:37:19;;;;;;;5.50;1.73;;;11.90;59.90;;;10.71;61.95;101492.06;12157733;19;20366;-86
2022/11/02 03:41:23;;;;;;;2.20;1.60;;;11.80;60.00;;;10.61;62.14;101471.59;12163870;19;20011;-86
2022/11/02 03:45:35;;;;;;;1.83;1.63;;;11.80;60.10;;;10.71;62.25;101487.69;12162791;19;21123;-85
2022/11/02 03:49:41;;;;;;;1.58;1.48;;;11.80;60.40;;;10.81;62.24;101503.81;12163209;19;20022;-85
2022/11/02 03:54:01;;;;;;;1.33;1.23;;;11.70;60.40;;;10.70;62.13;101480.78;12164244;19;20014;-84
2022/11/02 03:58:10;;;;;;;2.88;1.58;;;11.70;60.60;;;10.44;61.96;101429.66;12161082;19;20019;-85
2022/11/02 04:02:14;;;;;;;1.85;1.33;;;11.80;60.80;;;10.82;62.35;101492.44;12164480;19;20887;-86
2022/11/02 04:06:17;;;;;;;1.93;1.70;;;11.80;60.90;;;10.24;62.19;101393.97;12162222;19;20022;-86
2022/11/02 04:10:20;;;;;;;1.65;1.20;;;11.90;61.20;;;10.82;62.44;101479.38;12162171;19;20038;-85
2022/11/02 04:14:37;;;;;;;1.30;1.20;;;11.90;61.30;;;10.89;62.57;101482.59;12162706;19;20025;-86
2022/11/02 04:27:27;;;;;;;1.55;1.00;;;12.00;61.80;;;10.93;62.56;101482.38;12171350;19;21059;-86
2022/11/02 04:31:31;;;;;;;2.75;1.23;;;12.00;62.00;;;10.93;62.50;101484.13;12177045;19;20018;-85
2022/11/02 04:35:35;;;;;;;1.60;1.05;;;12.00;62.00;;;10.87;62.63;101460.91;12172772;19;20469;-86
2022/11/02 04:39:37;;;;;;;2.33;1.30;;;12.10;62.10;;;11.03;62.76;101482.81;12173750;19;20019;-85
2022/11/02 04:43:39;;;;;;;2.72;1.20;;;12.10;62.30;;;11.05;62.72;101481.84;12174337;19;20334;-85
2022/11/02 04:47:42;;;;;;;2.40;1.20;;;12.20;62.30;;;11.06;62.50;101477.44;12167651;19;20710;-85
2022/11/02 04:51:44;;;;;;;2.78;1.15;;;12.20;62.20;;;11.07;62.57;101472.16;12173199;19;20038;-85
2022/11/02 04:55:46;;;;;;;1.30;1.20;;;12.20;62.20;;;11.12;62.44;101476.31;12171368;19;20772;-86
2022/11/02 04:59:49;;;;;;;1.27;0.93;;;12.30;62.40;;;11.11;62.87;101479.84;12175109;19;20026;-85
2022/11/02 05:03:52;;;;;;;2.50;1.27;;;12.20;62.40;;;11.17;62.75;101495.25;12174584;19;20331;-86
2022/11/02 05:07:54;;;;;;;2.10;1.20;;;12.30;62.50;;;11.10;62.60;101473.78;12169637;19;20023;-85
2022/11/02 05:11:57;;;;;;;1.55;1.10;;;12.30;62.30;;;11.11;62.60;101472.03;12167810;19;20028;-86
2022/11/02 05:16:00;;;;;;;3.83;1.38;;;12.30;62.20;;;11.21;62.82;101507.28;12170806;19;20015;-85
2022/11/02 05:20:04;;;;;;;2.25;1.20;;;12.30;62.40;;;11.20;62.92;101490.72;12172560;19;20089;-86
2022/11/02 05:24:06;;;;;;;1.75;1.30;;;12.30;62.40;;;11.17;62.80;101490.03;12173159;19;20015;-85
2022/11/02 05:28:08;;;;;;;2.72;1.33;;;12.30;62.30;;;11.24;62.91;101496.69;12165223;19;20076;-86
2022/11/02 05:32:10;;;;;;;3.67;1.48;;;12.40;62.40;;;11.12;62.65;101479.78;12170251;19;20477;-85
2022/11/02 05:36:13;;;;;;;1.40;1.20;;;12.30;62.20;;;10.99;62.94;101458.59;12171635;19;20018;-85
2022/11/02 05:40:18;;;;;;;2.20;1.00;;;12.20;62.00;;;11.27;62.95;101497.38;12172152;19;20390;-86
2022/11/02 05:44:20;;;;;;;1.42;1.08;;;12.40;63.00;;;11.19;63.00;101481.19;12174624;19;20019;-86
2022/11/02 05:48:24;;;;;;;2.72;1.33;;;12.40;62.20;;;11.29;62.76;101485.09;12167880;19;20022;-86
2022/11/02 05:52:26;;;;;;;1.90;0.95;;;12.40;62.10;;;11.25;62.96;101491.38;12170897;19;20019;-86
2022/11/02 05:56:27;;;;;;;2.33;1.20;;;12.50;62.20;;;11.34;62.80;101499.72;12165180;19;20275;-86
2022/11/02 06:00:29;;;;;;;1.13;0.93;;;12.50;62.20;;;11.16;62.86;101470.88;12158440;19;20014;-85
2022/11/02 06:04:30;;;;;;;1.75;1.10;;;12.50;62.00;;;11.33;62.99;101498.88;12161678;19;20383;-85
2022/11/02 06:08:35;;;;;;;1.55;1.25;;;12.50;62.00;;;11.35;62.77;101493.59;12149715;19;20023;-85
2022/11/02 06:12:36;;;;;;;1.50;1.38;;;12.40;61.90;;;11.34;62.98;101487.50;12144102;19;20019;-85
2022/11/02 06:16:37;;;;;;;3.03;1.60;;;12.40;61.90;;;11.35;62.84;101488.34;12146119;19;20023;-85
2022/11/02 06:20:39;;;;;;;1.52;1.30;;;12.40;61.90;;;11.29;62.83;101500.78;12146332;19;20015;-85
2022/11/02 06:24:41;;;;;;;1.65;1.40;;;12.40;62.70;;;11.39;63.10;101506.44;12143684;19;20327;-85
2022/11/02 06:28:43;;;;;;;4.00;1.60;;;12.50;62.10;;;11.37;63.02;101500.44;12146285;19;20957;-85
2022/11/02 06:32:49;;;;;;;3.15;2.08;;;12.50;62.20;;;11.10;63.03;101460.72;12149634;19;20375;-85
2022/11/02 06:36:51;;;;;;;2.00;1.60;;;12.50;62.20;;;11.34;62.83;101494.47;12154651;19;20359;-85
2022/11/02 06:40:59;;;;;;;1.60;1.50;;;12.50;62.40;;;11.15;63.05;101469.22;12151131;19;20318;-85
2022/11/02 06:45:01;;;;;;;2.17;1.42;;;12.50;62.30;;;11.45;63.20;101519.25;12146672;19;20286;-85
2022/11/02 06:49:03;;;;;;;3.22;1.40;;;12.40;62.30;;;11.49;62.96;101518.16;12145432;19;20558;-85
2022/11/02 06:53:04;;;;;;;5.93;2.72;;;12.50;62.40;;;11.25;63.09;101470.47;12143267;19;20014;-85
2022/11/02 06:57:06;;;;;;;3.70;1.30;;;12.60;62.50;;;11.48;63.00;101515.63;12143750;19;20472;-84
2022/11/02 07:01:08;;;;;;;1.67;1.10;;;12.60;62.60;;;11.59;63.06;101538.69;12146612;19;20014;-87
2022/11/02 07:05:09;;;;;;;4.50;1.48;;;12.60;62.60;;;11.51;63.03;101515.50;12145766;19;20035;-85
2022/11/02 07:09:11;;;;;;;3.83;1.10;;;12.60;62.70;;;11.60;63.42;101529.91;12146816;19;20022;-85
2022/11/02 07:13:13;;;;;;;6.60;1.67;;;12.70;62.90;;;11.67;63.13;101532.16;12152141;19;20015;-87
2022/11/02 07:17:14;;;;;;;1.73;1.50;;;12.70;62.90;;;11.71;63.21;101540.72;12149052;19;20022;-86
2022/11/02 07:21:16;;;;;;;2.13;1.45;;;12.80;62.90;;;11.72;63.05;101527.56;12146772;19;20077;-86
2022/11/02 07:25:18;;;;;;;2.58;1.50;;;12.80;62.90;;;11.78;63.12;101530.81;12145400;19;20022;-86
2022/11/02 07:29:19;;;;;;;3.05;0.98;;;13.10;63.00;;;11.48;63.19;101479.84;12146525;19;20011;-85
2022/11/02 07:33:22;;;;;;;2.97;1.10;;;12.90;62.90;;;11.63;63.39;101487.91;12148970;19;20013;-85
2022/11/02 07:37:24;;;;;;;2.53;1.20;;;13.00;62.90;;;11.92;63.38;101529.25;12148997;19;20014;-88
2022/11/02 07:41:25;;;;;;;1.30;1.08;;;13.00;62.90;;;11.65;63.38;101475.59;12156607;19;20026;-85
2022/11/02 07:45:28;;;;;;;2.67;1.17;;;13.10;63.00;;;11.71;63.23;101477.91;12152825;19;20018;-85
2022/11/02 07:49:30;;;;;;;3.60;1.20;;;13.20;63.00;;;12.05;63.28;101518.22;12147873;19;20028;-85
2022/11/02 07:53:32;;;;;;;2.45;1.00;;;13.20;62.90;;;11.85;63.23;101472.84;12155105;19;20022;-86
2022/11/02 07:57:34;;;;;;;2.33;1.20;;;13.40;63.00;;;12.26;63.33;101532.88;12156060;19;20831;-86
2022/11/02 08:01:35;;;;;;;2.92;1.13;;;13.10;62.70;;;12.30;63.33;101529.16;12150789;19;20457;-85
2022/11/02 08:05:40;;;;;;;2.33;1.40;;;13.30;62.90;;;12.39;63.35;101533.97;12157316;19;20309;-87
2022/11/02 08:09:42;;;;;;;2.25;1.45;;;13.30;62.80;;;12.44;63.29;101532.88;12156040;19;20022;-86
2022/11/02 08:13:43;;;;;;;2.80;1.30;;;13.60;62.70;;;12.48;63.18;101527.41;12152755;19;20025;-85
2022/11/02 08:17:45;;;;;;;2.60;1.25;;;13.40;62.50;;;12.59;63.40;101539.97;12155053;19;20007;-86
2022/11/02 08:21:48;;;;;;;3.88;1.55;;;13.70;62.60;;;12.69;63.33;101538.59;12151594;19;20022;-86
2022/11/02 08:25:51;;;;;;;1.63;1.20;;;13.80;62.50;;;12.76;63.45;101539.94;12151084;19;20278;-86
2022/11/02 08:29:53;;;;;;;3.75;1.02;;;13.80;62.60;;;12.76;63.13;101523.38;12149651;19;20023;-87
2022/11/02 08:33:56;;;;;;;1.65;0.93;;;13.90;62.70;;;12.81;63.40;101521.38;12145453;19;20049;-83
2022/11/02 08:37:58;;;;;;;1.75;1.10;;;14.10;62.50;;;12.95;63.51;101544.25;12139761;19;20336;-86
2022/11/02 08:42:00;;;;;;;2.08;0.98;;;14.10;62.60;;;13.07;63.61;101544.47;12147234;19;20026;-88
2022/11/02 08:46:02;;;;;;;3.47;1.02;;;14.50;62.70;;;13.21;63.39;101545.50;12157083;19;20025;-87
2022/11/02 08:50:04;;;;;;;2.92;1.05;;;14.30;62.20;;;13.23;63.29;101539.25;12154465;19;20067;-88
2022/11/02 08:54:06;;;;;;;2.58;1.23;;;14.40;62.20;;;13.30;63.31;101539.78;12140188;19;21098;-90
2022/11/02 08:58:08;;;;;;;3.28;1.20;;;14.70;62.10;;;13.33;63.32;101523.03;12140480;19;20288;-85
2022/11/02 09:02:10;;;;;;;2.55;1.33;;;14.60;61.80;;;13.43;63.38;101538.19;12138327;19;20011;-85
2022/11/02 09:06:11;;;;;;;1.48;1.10;;;14.70;61.80;;;13.46;63.23;101534.56;12166501;19;20399;-85
2022/11/02 09:10:13;;;;;;;3.78;1.40;;;14.70;61.60;;;13.58;63.17;101544.38;12170939;19;20367;-85
2022/11/02 09:14:14;;;;;;;3.72;1.02;;;14.80;61.50;;;13.52;63.18;101525.50;12172022;19;20783;-85
2022/11/02 09:18:16;;;;;;;3.25;1.40;;;14.80;61.70;;;13.54;63.11;101527.13;12169531;19;20098;-87
2022/11/02 09:22:17;;;;;;;4.32;1.17;;;14.90;61.70;;;13.66;63.24;101534.34;12167994;19;20042;-86
2022/11/02 09:26:19;;;;;;;1.00;0.82;;;14.90;61.50;;;13.82;63.04;101551.84;12164916;19;20411;-86
2022/11/02 09:30:22;;;;;;;1.42;0.90;;;14.90;61.40;;;13.81;63.36;101545.75;12166574;19;20916;-84
2022/11/02 09:34:24;;;;;;;2.10;0.93;;;15.00;61.50;;;13.93;63.21;101557.34;12165943;19;20014;-84
2022/11/02 09:38:25;;;;;;;1.20;1.00;;;15.00;61.50;;;13.89;63.32;101537.44;12161176;19;20036;-84
2022/11/02 09:42:56;;;;;;;3.40;1.10;;;15.10;61.20;;;13.91;63.25;101551.34;12162649;19;20461;-85
2022/11/02 09:47:02;;;;;;;4.53;1.45;;;15.30;61.30;;;13.99;63.20;101558.78;12159074;19;20467;-85
2022/11/02 09:51:14;;;;;;;2.25;1.30;;;15.20;61.20;;;14.08;63.23;101553.84;12156081;19;20022;-86
2022/11/02 09:59:28;;;;;;;3.15;1.13;;;15.40;61.40;;;14.37;63.31;101569.75;12159504;19;20334;-85
2022/11/02 10:04:10;;;;;;;4.63;1.50;;;15.50;61.80;;;14.50;63.35;101569.88;12159752;19;20018;-86
2022/11/02 10:08:23;;;;;;;2.67;1.10;;;15.60;62.00;;;14.70;63.42;101576.63;12159644;19;20769;-86
2022/11/02 10:12:58;;;;;;;1.50;0.77;;;15.60;61.70;;;14.79;63.47;101561.16;12159144;19;20038;-85
2022/11/02 10:17:17;;;;;;;1.80;1.07;;;16.00;61.50;;;15.01;63.36;101563.38;12158164;19;20023;-83
2022/11/02 10:21:37;;;;;;;1.45;0.88;;;16.20;61.00;;;15.12;63.46;101554.81;12158633;19;20058;-85
2022/11/02 10:25:39;;;;;;;2.65;0.98;;;16.30;61.20;;;15.33;63.29;101554.41;12161730;19;20022;-85
2022/11/02 10:29:59;;;;;;;1.95;1.20;;;16.50;60.70;;;15.49;63.30;101560.41;12160565;19;20018;-84
2022/11/02 10:34:29;;;;;;;1.75;1.00;;;16.70;59.90;;;15.57;63.14;101546.78;12160676;19;20063;-84
2022/11/02 10:39:07;;;;;;;3.75;1.08;;;16.70;59.60;;;15.78;63.11;101571.78;12157697;19;20399;-85
2022/11/02 10:43:42;;;;;;;3.20;1.20;;;17.10;59.50;;;15.86;63.03;101561.59;12155723;19;20049;-84
2022/11/02 10:48:22;;;;;;;3.63;0.93;;;17.10;59.30;;;16.01;63.05;101572.94;12152616;19;20025;-84
2022/11/02 10:52:34;;;;;;;1.38;0.90;;;17.10;58.80;;;16.13;63.03;101568.69;12152747;19;20018;-84
2022/11/02 10:56:35;;;;;;;2.15;1.00;;;17.30;58.80;;;16.15;62.77;101557.09;12155507;19;20022;-84
2022/11/02 11:00:38;;;;;;;2.53;1.10;;;17.30;58.40;;;16.22;62.46;101560.16;12161909;19;20928;-84
2022/11/02 11:04:41;;;;;;;3.58;1.92;;;17.50;58.30;;;16.36;62.42;101562.75;12159376;19;20279;-84
2022/11/02 11:08:45;;;;;;;1.77;1.00;;;17.60;58.30;;;16.18;62.37;101531.50;12161963;19;20018;-84
2022/11/02 11:12:47;;;;;;;1.40;1.30;;;17.60;58.10;;;16.45;62.45;101565.72;12162620;19;20603;-85
2022/11/02 11:16:53;;;;;;;2.30;1.10;;;17.70;57.90;;;16.50;62.19;101569.75;12157965;19;20024;-86
2022/11/02 11:20:55;;;;;;;;;;;17.70;57.50;;;16.45;62.12;101569.19;12159846;19;20022;-86
2022/11/02 11:25:23;;;;;;;2.97;1.13;;;17.80;58.70;;;16.51;62.01;101563.50;12159872;19;20243;-85
2022/11/02 11:29:28;;;;;;;5.15;1.25;;;17.80;57.60;;;16.68;61.89;101598.47;12160153;19;20006;-86
2022/11/02 11:33:31;;;;;;;9.57;1.40;;;17.90;57.50;;;16.63;61.96;101584.72;12160330;19;20018;-86
2022/11/02 11:37:33;;;;;;;3.55;1.48;;;17.90;57.40;;;16.74;61.69;101584.84;12146489;19;20524;-85
2022/11/02 11:41:40;;;;;;;1.27;1.02;;;17.90;57.20;;;16.80;61.38;101597.69;12144092;19;20022;-86
2022/11/02 11:45:56;;;;;;;1.98;0.93;;;18.00;56.60;;;16.78;61.46;101589.84;12146844;19;20014;-85
2022/11/02 11:50:03;;;;;;;2.55;1.25;;;18.00;56.00;;;16.89;61.43;101590.94;12156869;19;20018;-86
2022/11/02 11:54:30;;;;;;;1.00;0.90;;;18.30;56.70;;;16.81;61.24;101584.38;12149322;19;20023;-85
2022/11/02 11:58:34;;;;;;;2.63;1.30;;;18.10;56.70;;;16.51;61.17;101531.03;12149422;19;20014;-86
2022/11/02 12:02:36;;;;;;;2.55;1.05;;;18.10;56.40;;;16.94;61.06;101586.19;12149020;19;20018;-86
2022/11/02 12:07:14;;;;;;;2.17;1.15;;;18.00;56.50;;;16.60;60.97;101539.16;12148252;19;20026;-86
2022/11/02 12:11:47;;;;;;;1.75;0.88;;;18.10;56.40;;;16.52;61.06;101524.78;12137403;19;20019;-87
2022/11/02 12:16:16;;;;;;;2.13;1.00;;;18.10;56.60;;;16.96;60.68;101585.13;12149897;19;20022;-86
2022/11/02 12:20:40;;;;;;;3.63;0.93;;;18.10;56.40;;;16.71;60.76;101550.75;12147625;19;20040;-85
2022/11/02 12:25:15;;;;;;;1.75;1.17;;;18.00;56.10;;;16.68;60.68;101535.16;12165168;19;20121;-86
2022/11/02 12:29:42;;;;;;;2.30;1.08;;;18.10;56.40;;;16.97;60.55;101583.34;12152160;19;20406;-86
2022/11/02 12:34:25;;;;;;;2.83;1.20;;;18.10;56.30;;;16.98;60.58;101591.13;12151508;19;20537;-88
2022/11/02 12:38:50;;;;;;;2.88;1.75;;;18.00;56.30;;;16.93;60.31;101576.56;12149483;19;20023;-86
2022/11/02 12:43:04;;;;;;;1.23;0.90;;;18.10;56.20;;;17.00;60.47;101583.94;12171976;19;20055;-87
2022/11/02 12:47:28;;;;;;;3.43;0.93;;;18.10;56.40;;;16.94;60.21;101580.91;12171119;19;20095;-87
2022/11/02 12:51:39;;;;;;;2.17;0.80;;;17.90;56.20;;;17.02;60.22;101591.78;12177572;19;20024;-85
2022/11/02 12:55:47;;;;;;;3.95;1.23;;;18.30;56.20;;;17.02;60.14;101595.25;12170537;19;20477;-85
2022/11/02 12:59:56;;;;;;;3.22;1.23;;;18.10;56.20;;;16.98;60.08;101585.84;12178217;19;20099;-86
2022/11/02 13:04:15;;;;;;;2.80;1.15;;;18.10;55.90;;;16.95;59.90;101578.16;12161245;19;20117;-87
2022/11/02 13:08:23;;;;;;;4.70;1.40;;;18.00;55.90;;;16.92;60.19;101574.88;12157922;19;20785;-86
2022/11/02 13:12:26;;;;;;;3.35;0.90;;;18.20;56.00;;;16.84;59.74;101562.22;12158992;19;21040;-88
2022/11/02 13:16:45;;;;;;;4.40;1.08;;;18.10;55.30;;;16.94;59.89;101592.31;12156339;19;20395;-86
2022/11/02 13:20:52;;;;;;;0.88;0.82;;;18.00;55.20;;;16.86;59.69;101567.41;12161980;19;20022;-86
2022/11/02 13:25:05;;;;;;;2.00;0.93;;;18.00;54.90;;;16.94;59.67;101588.81;12165290;19;20304;-86
2022/11/02 13:29:38;;;;;;;5.80;1.50;;;18.00;54.70;;;16.86;59.27;101581.41;12171006;19;20071;-87
2022/11/02 13:33:46;;;;;;;2.35;1.10;;;17.90;54.50;;;16.83;59.48;101568.44;12161030;19;20555;-85
2022/11/02 13:37:56;;;;;;;1.85;1.10;;;18.00;54.10;;;16.99;59.31;101594.63;12165149;19;20295;-86
2022/11/02 13:42:25;;;;;;;1.15;0.85;;;18.00;54.10;;;16.94;59.20;101579.09;12165364;19;20015;-86
2022/11/02 13:46:55;;;;;;;2.00;1.10;;;18.10;53.90;;;16.94;59.17;101580.91;12170204;19;20333;-85
2022/11/02 13:51:03;;;;;;;2.60;0.82;;;18.10;54.10;;;17.03;58.80;101582.91;12161528;19;20899;-86
2022/11/02 13:55:12;;;;;;;3.22;0.93;;;18.10;53.90;;;17.06;58.91;101581.84;12144098;19;20018;-86
2022/11/02 13:59:37;;;;;;;3.22;1.20;;;17.90;54.00;;;16.99;58.50;101577.00;12170510;19;20025;-86
2022/11/02 14:03:54;;;;;;;1.58;0.90;;;18.10;53.90;;;17.03;58.44;101573.19;12170966;19;20745;-85
2022/11/02 14:08:04;;;;;;;3.83;1.00;;;18.20;53.70;;;17.12;58.42;101584.94;12168109;19;20014;-85
2022/11/02 14:12:23;;;;;;;2.67;0.80;;;18.20;53.70;;;17.22;58.26;101585.94;12167659;19;20015;-86
2022/11/02 14:16:57;;;;;;;2.75;0.95;;;18.10;53.70;;;17.15;58.29;101576.78;12161216;19;20018;-85
2022/11/02 14:21:40;;;;;;;1.38;0.80;;;18.30;53.60;;;17.19;58.05;101590.59;12161253;19;20018;-85
2022/11/02 14:25:48;;;;;;;2.00;0.80;;;18.30;53.40;;;17.21;58.25;101592.19;12172017;19;20018;-86
2022/11/02 14:29:52;;;;;;;2.53;1.30;;;18.30;53.10;;;17.15;57.80;101584.72;12172061;19;20482;-85
2022/11/02 14:34:01;;;;;;;1.92;0.88;;;18.30;53.30;;;17.19;58.02;101598.53;12156764;19;20014;-86
2022/11/02 14:38:22;;;;;;;1.75;0.80;;;18.20;53.20;;;17.06;57.93;101593.25;12154436;19;20034;-85
2022/11/02 14:42:50;;;;;;;1.25;0.85;;;18.20;53.20;;;17.12;57.70;101616.59;12165700;19;20519;-85
2022/11/02 14:47:14;;;;;;;1.75;0.88;;;18.20;53.00;;;16.98;57.82;101592.94;12169736;19;20019;-84
2022/11/02 14:51:30;;;;;;;1.55;1.00;;;18.10;53.10;;;17.08;57.46;101623.03;12163084;19;20323;-85
2022/11/02 14:55:36;;;;;;;1.13;0.95;;;18.10;52.90;;;17.06;57.75;101621.44;12160799;19;20919;-85
2022/11/02 14:59:44;;;;;;;2.47;0.70;;;18.10;52.70;;;16.99;57.63;101626.31;12162930;19;20015;-85
2022/11/02 15:03:47;;;;;;;1.75;0.95;;;18.10;52.90;;;16.77;57.61;101600.53;12161871;19;20735;-85
2022/11/02 15:08:00;;;;;;;3.72;1.10;;;17.90;53.00;;;17.03;57.50;101649.72;12157450;19;20111;-86
2022/11/02 15:12:27;;;;;;;2.13;1.00;;;18.10;53.00;;;16.98;57.28;101667.66;12159675;19;20759;-84
2022/11/02 15:16:40;;;;;;;1.05;0.80;;;18.00;52.50;;;16.92;57.17;101654.03;12157600;19;20062;-85
2022/11/02 15:20:42;;;;;;;2.45;1.00;;;18.00;52.80;;;16.93;57.12;101658.34;12156975;19;20014;-85
2022/11/02 15:24:45;;;;;;;1.98;0.80;;;17.90;52.80;;;16.88;57.24;101663.97;12158594;19;20055;-85
2022/11/02 15:28:59;;;;;;;1.17;0.95;;;17.90;52.70;;;16.79;56.95;101652.19;12153533;19;20025;-85
2022/11/02 15:33:05;;;;;;;2.28;1.40;;;17.90;52.60;;;16.79;57.01;101664.56;12153303;19;20424;-85
2022/11/02 15:37:12;;;;;;;1.52;1.13;;;17.80;52.60;;;16.60;56.91;101647.28;12152541;19;20825;-85
2022/11/02 15:41:37;;;;;;;2.47;1.30;;;17.70;52.50;;;16.71;56.86;101672.94;12154937;19;20023;-85
2022/11/02 15:46:22;;;;;;;2.95;1.25;;;17.50;52.30;;;16.70;56.51;101683.59;12155536;19;20038;-85
2022/11/02 15:50:41;;;;;;;3.50;1.30;;;17.70;52.60;;;16.66;56.85;101690.88;12159275;19;20029;-85
2022/11/02 15:55:08;;;;;;;3.15;1.02;;;17.40;52.30;;;16.56;56.37;101700.34;12161267;19;20118;-85
2022/11/02 15:59:41;;;;;;;4.97;1.60;;;17.40;52.20;;;16.49;56.49;101705.13;12162173;19;20026;-85
2022/11/02 16:03:49;;;;;;;0.95;0.95;;;17.40;52.60;;;16.42;56.57;101692.44;12151200;19;20590;-85
2022/11/02 16:07:54;;;;;;;2.75;1.27;;;17.50;52.20;;;16.37;56.49;101698.03;12146058;19;20026;-85
2022/11/02 16:12:21;;;;;;;1.23;1.08;;;17.40;52.20;;;16.36;56.42;101697.19;12155874;19;20064;-85
2022/11/02 16:16:23;;;;;;;2.10;1.30;;;17.30;52.30;;;16.28;56.32;101695.97;12169531;19;20021;-87
2022/11/02 16:20:35;;;;;;;1.50;1.40;;;17.30;52.30;;;16.23;56.06;101698.91;12172283;19;20578;-86
2022/11/02 16:24:46;;;;;;;2.63;1.50;;;17.30;52.40;;;16.27;56.21;101710.94;12171270;19;20046;-85
2022/11/02 16:28:53;;;;;;;1.50;1.40;;;17.20;52.20;;;16.03;56.04;101673.81;12166837;19;20018;-85
2022/11/02 16:33:00;;;;;;;4.20;1.40;;;17.10;52.30;;;16.18;55.97;101706.25;12165655;19;20015;-86
2022/11/02 16:37:02;;;;;;;2.33;1.20;;;17.20;52.40;;;16.21;56.18;101726.31;12161603;19;20877;-85
2022/11/02 16:41:08;;;;;;;3.25;2.20;;;17.20;52.40;;;16.15;55.86;101727.53;12163371;19;20015;-85
2022/11/02 16:45:33;;;;;;;7.82;5.78;;;17.10;52.30;;;16.12;55.89;101738.25;12165207;19;20019;-86
2022/11/02 16:49:57;;;;;;;6.40;4.60;;;17.00;52.50;;;16.04;56.15;101732.63;12168825;19;20102;-85
2022/11/02 16:54:26;;;;;;;7.15;6.38;;;17.00;52.60;;;16.02;55.89;101750.34;12171455;19;20586;-85
2022/11/02 16:58:28;;;;;;;3.90;3.10;;;16.90;52.50;;;15.82;55.81;101718.13;12170672;19;20025;-86
2022/11/02 17:02:37;;;;;;;5.40;3.33;;;16.90;52.40;;;15.90;55.95;101741.38;12167672;19;20019;-85
2022/11/02 17:06:41;;;;;;;3.53;3.20;;;16.90;52.50;;;15.82;55.72;101736.56;12165941;19;20271;-85
2022/11/02 17:10:43;;;;;;;5.38;2.92;;;16.80;52.60;;;15.89;55.79;101758.13;12164620;19;20035;-86
2022/11/02 17:14:49;;;;;;;3.63;2.85;;;16.60;52.50;;;15.74;56.05;101749.34;12163798;19;20022;-85
2022/11/02 17:18:50;;;;;;;3.42;2.58;;;16.70;52.50;;;15.75;55.60;101758.97;12167159;19;20614;-85